Time;durP1;ratioP1;P1;durP2;ratioP2;P2;SDS_P1;SDS_P2;PMS_P1;PMS_P2;Temp;Humidity;BMP_temperature;BMP_pressure;BME280_temperature;BME280_humidity;BME280_pressure;Samples;Min_cycle;Max_cycle;Signal;HPM_P1;HPM_P2
2023/05/15 00:00:51;;;;;;;2.20;1.80;;;14.90;99.90;;;15.12;76.05;100242.59;5016092;28;20651;-66
2023/05/15 00:03:18;;;;;;;2.00;1.80;;;14.80;99.90;;;15.11;75.98;100248.84;5027904;28;21132;-66
2023/05/15 00:05:45;;;;;;;2.37;2.17;;;14.80;99.90;;;15.10;76.12;100246.38;5027404;28;20639;-66
2023/05/15 00:08:12;;;;;;;2.00;1.90;;;14.80;99.90;;;15.11;76.53;100248.00;5011122;28;20665;-66
2023/05/15 00:10:39;;;;;;;2.23;2.13;;;14.80;99.90;;;15.12;76.79;100245.22;5011251;28;21262;-67
2023/05/15 00:13:17;;;;;;;2.13;2.03;;;14.80;99.90;;;15.14;76.74;100251.16;5020412;28;21045;-64
2023/05/15 00:15:44;;;;;;;2.00;1.90;;;14.90;99.90;;;15.15;76.32;100254.59;5010887;28;20679;-66
2023/05/15 00:18:11;;;;;;;1.63;1.53;;;14.90;99.90;;;15.17;76.80;100257.91;5024072;28;20659;-66
2023/05/15 00:20:38;;;;;;;2.10;2.00;;;14.90;99.90;;;15.18;76.88;100260.38;5016022;28;20642;-67
2023/05/15 00:23:05;;;;;;;2.70;2.30;;;14.80;99.90;;;15.19;76.41;100254.16;5016180;28;20648;-66
2023/05/15 00:25:32;;;;;;;1.67;1.60;;;14.90;99.90;;;15.21;76.62;100254.00;5028799;28;20658;-63
2023/05/15 00:27:59;;;;;;;1.80;1.70;;;14.90;99.90;;;15.21;76.54;100254.84;5011868;28;20644;-66
2023/05/15 00:30:26;;;;;;;1.40;1.30;;;14.90;99.90;;;15.22;76.65;100260.94;5020958;28;21303;-67
2023/05/15 00:32:53;;;;;;;1.50;1.47;;;14.90;99.90;;;15.18;76.57;100254.31;5020903;28;20628;-66
2023/05/15 00:35:21;;;;;;;1.70;1.60;;;14.80;99.90;;;15.16;76.42;100262.34;5012734;28;20676;-66
2023/05/15 00:37:47;;;;;;;1.63;1.60;;;14.80;99.90;;;15.14;76.48;100252.97;5032277;28;20694;-66
2023/05/15 00:40:21;;;;;;;1.93;1.83;;;14.80;99.90;;;15.11;76.37;100259.34;5025858;28;20633;-64
2023/05/15 00:42:50;;;;;;;1.70;1.60;;;14.80;99.90;;;15.05;76.67;100248.59;5020369;28;20654;-66
2023/05/15 00:45:18;;;;;;;1.50;1.40;;;14.70;99.90;;;14.96;76.91;100247.69;5022934;28;20637;-66
2023/05/15 00:47:45;;;;;;;1.80;1.70;;;14.70;99.90;;;14.97;77.29;100251.94;5028645;28;21049;-66
2023/05/15 00:50:12;;;;;;;2.40;2.20;;;14.70;99.90;;;14.95;77.37;100242.59;5024729;28;20695;-66
2023/05/15 00:52:39;;;;;;;1.80;1.63;;;14.70;99.90;;;14.91;77.24;100242.03;5032043;28;20611;-66
2023/05/15 00:55:06;;;;;;;2.60;2.20;;;14.60;99.90;;;14.87;77.70;100243.31;5023969;28;20633;-66
2023/05/15 00:57:33;;;;;;;2.40;2.20;;;14.60;99.90;;;14.84;78.10;100246.25;5011961;28;20587;-66
2023/05/15 01:00:04;;;;;;;2.23;2.13;;;14.50;99.90;;;14.83;78.02;100239.31;5012817;28;20631;-68
2023/05/15 01:02:32;;;;;;;1.87;1.77;;;14.50;99.90;;;14.80;77.93;100242.22;5013128;28;20660;-66
2023/05/15 01:04:59;;;;;;;2.27;2.07;;;14.50;99.90;;;14.80;77.89;100250.09;5022737;28;20641;-66
2023/05/15 01:07:30;;;;;;;1.83;1.73;;;14.50;99.90;;;14.74;78.04;100253.31;5024717;28;20647;-66
2023/05/15 01:09:58;;;;;;;2.10;2.00;;;14.50;99.90;;;14.74;78.30;100255.94;5028599;28;20613;-67
2023/05/15 01:12:29;;;;;;;2.00;1.90;;;14.40;99.90;;;14.71;78.74;100249.19;5020988;28;20672;-66
2023/05/15 01:14:56;;;;;;;1.73;1.50;;;14.40;99.90;;;14.69;78.52;100256.38;5020160;28;20621;-66
2023/05/15 01:17:23;;;;;;;1.80;1.70;;;14.40;99.90;;;14.66;78.28;100254.06;5029117;28;20615;-66
2023/05/15 01:19:51;;;;;;;1.40;1.40;;;14.40;99.90;;;14.63;78.48;100262.22;5025662;28;20609;-66
2023/05/15 01:22:58;;;;;;;1.77;1.67;;;14.30;99.90;;;14.59;78.31;100255.59;5009326;28;20621;-66
2023/05/15 01:26:08;;;;;;;2.30;2.10;;;14.30;99.90;;;14.50;79.11;100253.84;5011179;28;21016;-66
2023/05/15 01:28:42;;;;;;;1.97;1.87;;;14.20;99.90;;;14.49;79.30;100248.75;5018285;28;21315;-66
2023/05/15 01:31:18;;;;;;;1.80;1.70;;;14.20;99.90;;;14.48;78.97;100254.97;5010177;28;20657;-66
2023/05/15 01:33:50;;;;;;;1.50;1.40;;;14.20;99.90;;;14.46;79.07;100251.66;5011961;28;20652;-66
2023/05/15 01:36:42;;;;;;;1.60;1.50;;;14.20;99.90;;;14.41;79.33;100252.09;5009273;28;20683;-66
2023/05/15 01:39:11;;;;;;;2.53;1.90;;;14.10;99.90;;;14.36;79.26;100250.84;5009064;28;20649;-67
2023/05/15 01:41:51;;;;;;;2.23;2.10;;;14.10;99.90;;;14.31;79.60;100255.72;5011793;28;20660;-66
2023/05/15 01:44:25;;;;;;;2.37;1.97;;;14.00;99.90;;;14.27;79.66;100256.94;5023210;28;20620;-66
2023/05/15 01:46:57;;;;;;;1.63;1.53;;;14.00;99.90;;;14.23;79.70;100252.94;5029139;28;20584;-67
2023/05/15 01:49:27;;;;;;;1.90;1.80;;;13.90;99.90;;;14.23;79.58;100250.31;5029841;28;20671;-66
2023/05/15 01:52:26;;;;;;;1.97;1.87;;;14.00;99.90;;;14.23;79.82;100250.31;5028522;28;20665;-68
2023/05/15 01:54:54;;;;;;;1.70;1.60;;;13.90;99.90;;;14.25;79.76;100258.84;5028699;28;21184;-66
2023/05/15 01:57:22;;;;;;;1.33;1.33;;;14.00;99.90;;;14.28;79.33;100255.97;5009084;28;20740;-67
2023/05/15 01:59:50;;;;;;;1.03;0.93;;;14.00;99.90;;;14.27;79.22;100255.13;5010867;28;20973;-66
2023/05/15 02:02:18;;;;;;;1.53;1.43;;;14.00;99.90;;;14.27;79.55;100256.94;5012871;28;20633;-66
2023/05/15 02:04:46;;;;;;;1.50;1.40;;;14.00;99.90;;;14.22;79.71;100251.28;5026905;28;20624;-66
2023/05/15 02:07:15;;;;;;;1.57;1.47;;;13.90;99.90;;;14.20;79.83;100255.84;5026118;28;20624;-66
2023/05/15 02:09:43;;;;;;;2.00;1.90;;;13.90;99.90;;;14.19;79.69;100254.19;5009338;28;20661;-66
2023/05/15 02:12:10;;;;;;;1.63;1.37;;;13.90;99.90;;;14.14;80.08;100251.19;5020737;28;21200;-66
2023/05/15 02:14:40;;;;;;;1.53;1.43;;;13.90;99.90;;;14.15;80.08;100245.78;5028824;28;20627;-66
2023/05/15 02:17:07;;;;;;;1.70;1.57;;;13.80;99.90;;;14.14;80.00;100244.13;5030331;28;20620;-66
2023/05/15 02:19:34;;;;;;;1.80;1.70;;;13.90;99.90;;;14.15;80.02;100242.31;5030303;28;20649;-66
2023/05/15 02:22:01;;;;;;;1.90;1.80;;;13.90;99.90;;;14.17;79.89;100235.97;5024052;28;21160;-66
2023/05/15 02:24:28;;;;;;;1.87;1.77;;;13.90;99.90;;;14.19;79.81;100243.69;5025913;28;21177;-65
2023/05/15 02:27:19;;;;;;;2.73;1.63;;;13.90;99.90;;;14.22;79.76;100232.94;5029800;28;20616;-67
2023/05/15 02:30:01;;;;;;;2.60;1.70;;;13.90;99.90;;;14.27;80.14;100241.22;5027856;28;21231;-66
2023/05/15 02:33:00;;;;;;;2.07;1.90;;;14.00;99.90;;;14.26;80.05;100231.66;5030591;28;21233;-66
2023/05/15 02:35:56;;;;;;;1.83;1.73;;;14.00;99.90;;;14.23;79.42;100235.41;5011563;28;20628;-65
2023/05/15 02:38:38;;;;;;;2.40;2.17;;;13.90;99.90;;;14.26;79.69;100239.53;5009048;28;20727;-67
2023/05/15 02:41:06;;;;;;;1.80;1.70;;;14.00;99.90;;;14.22;79.86;100232.94;5009994;28;20618;-67
2023/05/15 02:43:36;;;;;;;1.73;1.50;;;13.90;99.90;;;14.20;80.10;100237.50;5022986;28;21215;-66
2023/05/15 02:46:04;;;;;;;1.93;1.80;;;13.90;99.90;;;14.15;80.17;100235.28;5018736;28;20643;-66
2023/05/15 02:48:31;;;;;;;1.30;1.30;;;13.90;99.90;;;14.08;80.64;100236.81;5027655;28;20649;-66
2023/05/15 02:50:58;;;;;;;1.53;1.43;;;13.80;99.90;;;14.05;80.82;100231.03;5028087;28;20720;-66
2023/05/15 02:53:25;;;;;;;1.43;1.33;;;13.80;99.90;;;14.00;81.37;100229.66;5023851;28;20636;-67
2023/05/15 02:55:52;;;;;;;1.53;1.43;;;13.70;99.90;;;13.97;81.38;100227.31;5010242;28;20641;-66
2023/05/15 02:58:19;;;;;;;2.00;1.80;;;13.70;99.90;;;13.93;81.47;100217.25;5010258;28;20653;-66
2023/05/15 03:00:46;;;;;;;2.23;2.07;;;13.70;99.90;;;13.92;81.31;100224.31;5007763;28;20640;-66
2023/05/15 03:03:13;;;;;;;1.47;1.37;;;13.70;99.90;;;13.93;81.56;100219.88;5013346;28;21160;-66
2023/05/15 03:05:40;;;;;;;2.20;2.00;;;13.70;99.90;;;13.88;81.87;100225.53;5030239;28;20659;-67
2023/05/15 03:08:07;;;;;;;2.87;2.00;;;13.60;99.90;;;13.84;82.11;100224.16;5011165;28;20649;-66
2023/05/15 03:10:33;;;;;;;1.80;1.70;;;13.60;99.90;;;13.82;82.34;100217.44;5018984;28;20620;-66
2023/05/15 03:13:01;;;;;;;1.60;1.50;;;13.60;99.90;;;13.79;82.17;100220.31;5010279;28;21248;-66
2023/05/15 03:15:28;;;;;;;2.20;2.00;;;13.60;99.90;;;13.77;82.38;100223.09;5024783;28;20643;-65
2023/05/15 03:17:55;;;;;;;1.30;1.13;;;13.50;99.90;;;13.79;82.61;100225.56;5024896;28;21250;-66
2023/05/15 03:20:22;;;;;;;1.50;1.40;;;13.50;99.90;;;13.74;82.76;100218.13;5029851;28;21247;-65
2023/05/15 03:22:49;;;;;;;1.67;1.57;;;13.50;99.90;;;13.71;82.35;100223.66;5014234;28;20645;-66
2023/05/15 03:25:16;;;;;;;1.50;1.50;;;13.50;99.90;;;13.68;82.65;100226.56;5016801;28;20668;-66
2023/05/15 03:27:43;;;;;;;1.30;1.20;;;13.40;99.90;;;13.64;82.88;100232.19;5019724;28;20660;-67
2023/05/15 03:30:10;;;;;;;0.80;0.80;;;13.40;99.90;;;13.61;82.90;100227.22;5022408;28;20645;-67
2023/05/15 03:32:37;;;;;;;1.33;1.17;;;13.40;99.90;;;13.58;82.79;100227.53;5028655;28;21091;-65
2023/05/15 03:35:10;;;;;;;1.10;1.00;;;13.40;99.90;;;13.52;83.08;100234.13;5024686;28;20628;-67
2023/05/15 03:37:36;;;;;;;1.93;1.53;;;13.30;99.90;;;13.44;83.66;100226.13;5028545;28;20628;-66
2023/05/15 03:40:08;;;;;;;1.60;1.50;;;13.20;99.90;;;13.43;83.55;100224.50;5027624;28;20763;-66
2023/05/15 03:42:36;;;;;;;1.20;1.10;;;13.20;99.90;;;13.42;83.99;100228.06;5029285;28;21183;-67
2023/05/15 03:45:04;;;;;;;1.53;1.40;;;13.20;99.90;;;13.42;83.54;100224.63;5023050;28;20652;-66
2023/05/15 03:47:34;;;;;;;2.03;1.77;;;13.20;99.90;;;13.39;84.16;100236.22;5019655;28;20636;-67
2023/05/15 03:50:06;;;;;;;1.20;1.20;;;13.20;99.90;;;13.37;84.45;100232.91;5023871;28;20631;-65
2023/05/15 03:52:36;;;;;;;1.27;1.20;;;13.10;99.90;;;13.34;83.89;100238.41;5019657;28;21144;-67
2023/05/15 03:55:07;;;;;;;0.97;0.97;;;13.10;99.90;;;13.32;84.66;100235.09;5011776;28;20669;-65
2023/05/15 03:57:34;;;;;;;1.30;1.30;;;13.10;99.90;;;13.34;84.45;100241.03;5026430;28;21014;-65
2023/05/15 04:00:08;;;;;;;1.90;1.77;;;13.10;99.90;;;13.38;83.71;100241.56;5028285;28;20732;-66
2023/05/15 04:02:36;;;;;;;1.80;1.70;;;13.10;99.90;;;13.41;83.65;100247.41;5025204;28;20658;-67
2023/05/15 04:05:04;;;;;;;2.37;2.17;;;13.20;99.90;;;13.46;83.64;100247.78;5017366;28;20637;-65
2023/05/15 04:07:36;;;;;;;2.57;2.37;;;13.20;99.90;;;13.50;83.21;100243.94;5024860;28;20611;-66
2023/05/15 04:10:03;;;;;;;2.00;1.90;;;13.20;99.90;;;13.52;83.13;100242.00;5031987;28;20637;-66
2023/05/15 04:12:33;;;;;;;2.00;1.90;;;13.20;99.90;;;13.59;83.08;100245.72;5020190;28;20645;-65
2023/05/15 04:15:20;;;;;;;2.10;2.00;;;13.30;99.90;;;13.69;82.49;100245.72;5011988;28;20720;-65
2023/05/15 04:17:52;;;;;;;2.00;1.90;;;13.40;99.90;;;13.71;81.68;100249.03;5017732;28;20653;-66
2023/05/15 04:20:23;;;;;;;2.10;1.93;;;13.40;99.90;;;13.73;81.42;100252.34;5011446;28;21223;-66
2023/05/15 04:22:51;;;;;;;2.10;2.00;;;13.50;99.90;;;13.77;81.34;100249.31;5014048;28;20616;-66
2023/05/15 04:25:19;;;;;;;1.97;1.77;;;13.50;99.90;;;13.80;81.14;100253.44;5012787;28;20624;-66
2023/05/15 04:27:46;;;;;;;2.10;1.90;;;13.50;99.90;;;13.83;80.86;100256.63;5013173;28;20660;-65
2023/05/15 04:30:13;;;;;;;1.93;1.83;;;13.60;99.90;;;13.90;80.54;100257.72;5031062;28;20637;-65
2023/05/15 04:32:40;;;;;;;2.50;2.00;;;13.60;99.90;;;13.97;80.52;100256.16;5030762;28;21075;-65
2023/05/15 04:35:10;;;;;;;1.50;1.40;;;13.70;99.90;;;14.01;79.86;100256.75;5015134;28;20628;-65
2023/05/15 04:37:38;;;;;;;1.57;1.47;;;13.80;99.90;;;14.03;79.77;100252.97;5013167;28;20626;-66
2023/05/15 04:40:06;;;;;;;2.57;2.20;;;13.80;99.90;;;14.06;79.26;100251.03;5025498;28;20647;-65
2023/05/15 04:42:35;;;;;;;2.47;2.27;;;13.80;99.90;;;14.11;79.57;100244.41;5020489;28;20624;-66
2023/05/15 04:45:05;;;;;;;1.73;1.67;;;13.80;99.90;;;14.25;79.40;100249.19;5031693;28;20629;-65
2023/05/15 04:47:32;;;;;;;2.27;2.07;;;13.90;99.90;;;14.36;78.55;100246.44;5027243;28;21050;-66
2023/05/15 04:49:59;;;;;;;2.00;1.87;;;14.10;99.90;;;14.49;78.12;100246.94;5016852;28;20644;-65
2023/05/15 04:52:26;;;;;;;1.80;1.70;;;14.20;99.90;;;14.69;77.01;100247.69;5012546;28;20669;-66
2023/05/15 04:54:54;;;;;;;1.67;1.57;;;14.40;99.90;;;14.91;75.91;100257.78;5010019;28;20644;-67
2023/05/15 04:57:21;;;;;;;2.07;1.90;;;14.60;99.90;;;15.07;75.30;100254.53;5020562;28;20617;-65
2023/05/15 04:59:48;;;;;;;1.90;1.80;;;14.70;99.90;;;15.19;74.36;100256.78;5012195;28;20645;-67
2023/05/15 05:02:20;;;;;;;1.53;1.53;;;14.90;99.90;;;15.34;73.71;100259.72;5027263;28;20999;-66
2023/05/15 05:04:47;;;;;;;1.93;1.67;;;15.00;99.90;;;15.63;73.20;100270.06;5031986;28;20609;-65
2023/05/15 05:07:14;;;;;;;1.90;1.80;;;15.30;99.90;;;15.96;72.18;100261.44;5023539;28;20643;-65
2023/05/15 05:09:41;;;;;;;1.73;1.67;;;15.60;99.90;;;16.30;70.16;100264.97;5025096;28;20661;-66
2023/05/15 05:12:08;;;;;;;1.90;1.80;;;15.90;99.90;;;16.61;68.43;100260.09;5028748;28;20652;-67
2023/05/15 05:14:36;;;;;;;2.10;1.90;;;16.20;99.90;;;16.90;67.47;100260.53;5030131;28;20679;-66
2023/05/15 05:17:03;;;;;;;1.90;1.80;;;16.50;99.90;;;17.15;65.91;100256.13;5018897;28;20632;-64
2023/05/15 05:19:30;;;;;;;1.87;1.77;;;16.80;99.90;;;17.40;65.45;100255.22;5032633;28;20632;-66
2023/05/15 05:22:00;;;;;;;1.90;1.80;;;17.00;99.90;;;17.57;64.34;100263.00;5031231;28;20632;-66
2023/05/15 05:24:27;;;;;;;2.00;1.90;;;17.20;99.90;;;17.80;63.52;100260.53;5032708;28;20985;-66
2023/05/15 05:26:56;;;;;;;2.20;2.10;;;17.50;99.90;;;17.96;62.89;100270.25;5026019;28;20768;-66
2023/05/15 05:29:24;;;;;;;1.90;1.80;;;17.60;99.90;;;18.16;62.08;100267.13;5031878;28;20644;-65
2023/05/15 05:31:52;;;;;;;2.13;2.03;;;17.80;99.90;;;18.33;61.25;100270.53;5031685;28;20745;-64
2023/05/15 05:34:19;;;;;;;2.07;1.97;;;18.00;99.90;;;18.53;60.87;100272.66;5026957;28;21046;-67
2023/05/15 05:36:46;;;;;;;2.07;1.97;;;18.20;99.90;;;18.73;60.55;100272.25;5013391;28;20664;-67
2023/05/15 05:39:15;;;;;;;2.00;1.90;;;18.40;99.90;;;19.04;59.85;100266.00;5011195;28;20664;-67
2023/05/15 05:41:43;;;;;;;1.90;1.80;;;18.70;99.90;;;19.29;59.19;100264.06;5031931;28;20584;-66
2023/05/15 05:44:10;;;;;;;2.07;1.97;;;18.90;99.90;;;19.50;58.44;100266.94;5028562;28;20655;-62
2023/05/15 05:46:37;;;;;;;1.73;1.37;;;19.10;99.90;;;19.75;57.76;100265.75;5012385;28;20617;-66
2023/05/15 05:49:04;;;;;;;1.27;1.23;;;19.30;99.90;;;20.03;56.58;100266.81;5010409;28;20676;-65
2023/05/15 05:51:31;;;;;;;1.90;1.80;;;19.70;99.90;;;20.09;56.14;100271.41;5014260;28;20634;-69
2023/05/15 05:53:58;;;;;;;2.03;1.93;;;19.80;99.90;;;19.93;56.41;100266.22;5010817;28;20618;-64
2023/05/15 05:56:25;;;;;;;1.63;1.53;;;19.60;99.90;;;19.77;56.96;100268.19;5016042;28;20999;-65
2023/05/15 05:58:52;;;;;;;2.07;1.97;;;19.50;99.90;;;20.03;56.22;100269.47;5012437;28;20745;-64
2023/05/15 06:01:20;;;;;;;2.70;2.60;;;19.60;99.90;;;20.41;55.10;100272.09;5009913;28;20990;-67
2023/05/15 06:03:47;;;;;;;2.00;1.90;;;20.00;99.90;;;20.93;53.90;100267.50;5011763;28;20606;-66
2023/05/15 06:06:14;;;;;;;1.93;1.83;;;20.50;99.90;;;21.47;52.97;100274.06;5024727;28;20622;-65
2023/05/15 06:08:41;;;;;;;2.47;1.50;;;21.00;99.90;;;22.05;51.74;100277.47;5009935;28;20644;-65
2023/05/15 06:11:08;;;;;;;2.07;1.90;;;21.60;99.90;;;22.51;50.09;100281.25;5012982;28;20683;-66
2023/05/15 06:13:34;;;;;;;1.73;1.63;;;22.00;99.90;;;22.81;48.84;100280.03;5018721;28;20659;-66
2023/05/15 06:16:01;;;;;;;1.60;1.50;;;22.50;99.60;;;22.67;49.27;100275.66;5015888;28;20726;-66
2023/05/15 06:18:28;;;;;;;2.20;2.10;;;22.50;99.10;;;22.45;50.03;100275.91;5013624;28;20653;-66
2023/05/15 06:20:59;;;;;;;1.97;1.87;;;22.20;99.10;;;22.13;50.70;100277.31;5029372;28;20609;-66
2023/05/15 06:23:26;;;;;;;2.30;2.17;;;21.90;99.20;;;21.90;51.59;100274.91;5025844;28;20675;-66
2023/05/15 06:25:53;;;;;;;2.30;1.87;;;21.70;99.60;;;21.91;51.62;100275.72;5021977;28;20631;-67
2023/05/15 06:28:20;;;;;;;1.53;1.53;;;21.70;99.80;;;22.24;51.71;100269.66;5024879;28;20655;-66
2023/05/15 06:30:47;;;;;;;1.87;1.80;;;21.90;99.90;;;22.86;50.35;100269.63;5022982;28;21734;-65
2023/05/15 06:33:14;;;;;;;2.50;2.30;;;22.40;99.50;;;23.72;48.49;100274.16;5024235;28;20646;-64
2023/05/15 06:35:45;;;;;;;2.07;1.87;;;23.20;98.10;;;24.66;46.38;100280.88;5005673;28;20640;-66
2023/05/15 06:38:14;;;;;;;2.67;2.50;;;24.20;96.60;;;25.19;44.50;100278.06;4990367;28;20743;-69
2023/05/15 06:40:41;;;;;;;1.80;1.77;;;24.90;94.90;;;24.95;45.24;100281.44;5029264;28;20997;-68
2023/05/15 06:43:08;;;;;;;2.20;2.10;;;24.70;94.00;;;24.49;45.65;100281.56;5029995;28;20632;-70
2023/05/15 06:45:35;;;;;;;2.87;2.67;;;24.40;94.00;;;23.99;47.36;100283.00;5025457;28;20633;-70
2023/05/15 06:48:02;;;;;;;3.03;2.73;;;23.90;94.40;;;23.40;47.97;100276.81;5025288;28;20692;-68
2023/05/15 06:50:29;;;;;;;2.40;2.07;;;23.30;94.90;;;23.14;48.85;100278.34;5021636;28;20731;-68
2023/05/15 06:52:57;;;;;;;1.53;1.23;;;22.90;95.60;;;22.92;49.41;100279.47;5032414;28;20652;-69
2023/05/15 06:55:24;;;;;;;2.73;1.90;;;22.70;95.80;;;22.67;50.22;100277.50;5024468;28;20620;-69
2023/05/15 06:57:51;;;;;;;1.90;1.80;;;22.50;96.30;;;22.63;50.43;100279.75;5020268;28;20663;-68
2023/05/15 07:00:18;;;;;;;2.10;2.00;;;22.40;96.60;;;23.07;49.50;100272.16;5017738;28;20618;-69
2023/05/15 07:02:45;;;;;;;3.00;2.80;;;22.70;96.50;;;23.57;48.95;100275.41;5024476;28;20643;-68
2023/05/15 07:05:13;;;;;;;1.90;1.80;;;23.30;95.80;;;23.99;47.94;100279.53;5016226;28;20645;-69
2023/05/15 07:07:41;;;;;;;2.13;2.00;;;23.70;95.50;;;24.18;47.46;100282.22;5008920;28;20620;-70
2023/05/15 07:10:08;;;;;;;2.60;2.40;;;23.90;94.70;;;24.24;46.80;100286.72;5029830;28;20620;-68
2023/05/15 07:12:35;;;;;;;2.90;2.60;;;24.00;94.50;;;24.45;47.25;100285.66;5025041;28;20675;-69
2023/05/15 07:15:03;;;;;;;3.13;2.93;;;24.10;94.40;;;24.75;45.43;100278.00;5028004;28;20666;-67
2023/05/15 07:17:32;;;;;;;3.30;3.10;;;24.50;93.50;;;24.87;46.10;100281.69;5010780;28;21438;-69
2023/05/15 07:19:59;;;;;;;2.47;2.30;;;24.70;93.20;;;24.86;45.63;100290.69;5010396;28;20601;-70
2023/05/15 07:22:27;;;;;;;3.00;2.40;;;24.70;93.00;;;24.92;45.94;100279.19;5012302;28;20616;-68
2023/05/15 07:24:54;;;;;;;2.50;2.30;;;24.70;92.70;;;24.98;45.02;100279.16;5021466;28;20636;-67
2023/05/15 07:27:21;;;;;;;2.67;2.57;;;24.80;92.30;;;25.37;45.01;100275.47;5021262;28;20716;-70
2023/05/15 07:29:48;;;;;;;2.87;2.67;;;25.10;92.30;;;26.49;43.39;100286.16;5009042;28;20708;-68
2023/05/15 07:32:15;;;;;;;2.60;2.40;;;26.10;91.80;;;27.90;41.42;100288.22;5020804;28;20654;-71
2023/05/15 07:34:42;;;;;;;4.43;3.67;;;27.50;89.40;;;29.61;37.74;100278.50;5029112;28;20643;-69
2023/05/15 07:37:09;;;;;;;3.17;2.93;;;29.20;84.00;;;30.26;36.20;100278.75;5033118;28;20658;-69
2023/05/15 07:39:36;;;;;;;2.50;2.27;;;30.10;79.40;;;30.75;35.22;100276.25;5023003;28;20691;-69
2023/05/15 07:42:03;;;;;;;3.37;3.07;;;30.40;76.30;;;31.15;34.64;100279.44;5016226;28;21137;-71
2023/05/15 07:44:30;;;;;;;3.70;3.33;;;31.00;73.80;;;31.08;34.42;100271.53;5030990;28;20660;-69
2023/05/15 07:46:58;;;;;;;4.10;3.80;;;31.00;71.70;;;30.24;35.52;100270.13;5022086;28;20628;-69
2023/05/15 07:49:25;;;;;;;3.53;3.23;;;30.30;71.50;;;30.00;36.16;100267.88;5014007;28;20665;-69
2023/05/15 07:51:52;;;;;;;4.03;3.73;;;30.00;72.30;;;30.20;36.27;100260.91;5014313;28;20640;-70
2023/05/15 07:54:19;;;;;;;3.67;3.37;;;30.00;72.40;;;31.16;35.04;100262.19;5021622;28;21251;-71
2023/05/15 07:56:46;;;;;;;4.00;3.70;;;30.70;71.40;;;31.70;33.84;100261.13;5017283;28;20613;-72
2023/05/15 07:59:13;;;;;;;4.07;3.77;;;31.40;69.20;;;31.72;32.83;100267.09;5020081;28;20652;-72
2023/05/15 08:01:40;;;;;;;3.97;3.17;;;31.60;66.60;;;32.13;32.62;100274.44;5012332;28;20647;-71
2023/05/15 08:04:08;;;;;;;4.10;3.80;;;32.10;66.00;;;32.59;31.77;100269.31;5014560;28;20625;-72
2023/05/15 08:06:38;;;;;;;4.40;4.10;;;32.70;64.20;;;32.96;31.47;100271.91;5012448;28;20617;-70
2023/05/15 08:09:05;;;;;;;4.33;4.03;;;33.00;63.30;;;33.22;30.86;100270.94;5018764;28;20664;-73
2023/05/15 08:11:32;;;;;;;4.93;4.53;;;33.30;62.60;;;33.45;30.71;100259.63;5021602;28;20628;-71
2023/05/15 08:13:59;;;;;;;6.83;4.23;;;33.50;62.10;;;33.51;30.96;100256.69;5017307;28;20701;-72
2023/05/15 08:16:26;;;;;;;4.13;3.73;;;33.60;60.90;;;33.25;30.65;100260.41;5011041;28;20675;-73
2023/05/15 08:18:57;;;;;;;4.50;4.10;;;33.50;60.60;;;32.63;31.42;100268.53;5010975;28;21232;-74
2023/05/15 08:21:24;;;;;;;4.00;3.70;;;33.00;60.60;;;31.85;32.47;100260.44;5011661;28;20617;-73
2023/05/15 08:23:51;;;;;;;3.73;3.43;;;32.20;61.30;;;31.29;33.25;100268.00;5013938;28;20703;-74
2023/05/15 08:26:20;;;;;;;4.70;4.23;;;31.50;61.90;;;30.98;34.11;100265.22;5020507;28;20643;-71
2023/05/15 08:28:47;;;;;;;2.87;2.67;;;31.20;62.70;;;30.84;34.02;100264.75;5022976;28;21470;-73
2023/05/15 08:31:14;;;;;;;4.27;3.83;;;31.00;62.70;;;30.52;34.39;100256.53;5012721;28;20708;-71
2023/05/15 08:33:41;;;;;;;4.50;4.10;;;30.50;63.30;;;30.87;34.63;100258.09;5011548;28;21283;-72
2023/05/15 08:36:08;;;;;;;5.40;4.90;;;30.70;63.90;;;30.74;34.76;100256.56;5013479;28;20588;-73
2023/05/15 08:38:35;;;;;;;4.90;4.40;;;30.70;63.60;;;31.92;33.24;100259.13;5018738;28;20645;-71
2023/05/15 08:41:11;;;;;;;4.53;4.10;;;31.50;63.00;;;33.56;30.46;100264.00;5028960;28;20639;-71
2023/05/15 08:43:40;;;;;;;6.70;5.90;;;33.20;60.90;;;34.25;28.40;100264.22;5022512;28;20621;-73
2023/05/15 08:46:07;;;;;;;6.90;6.20;;;34.20;57.90;;;34.67;28.56;100256.53;5010270;28;20625;-71
2023/05/15 08:48:37;;;;;;;7.67;6.03;;;34.80;57.20;;;35.94;27.32;100267.41;5024041;28;20666;-72
2023/05/15 08:51:08;;;;;;;5.30;4.80;;;35.80;56.40;;;36.11;27.07;100255.06;5028575;28;20640;-72
2023/05/15 08:53:35;;;;;;;5.30;4.80;;;36.30;55.20;;;36.79;26.31;100261.09;5021404;28;20672;-72
2023/05/15 08:56:03;;;;;;;4.70;4.30;;;36.90;54.30;;;36.99;25.48;100254.63;5021349;28;20626;-72
2023/05/15 08:58:31;;;;;;;5.67;5.27;;;37.30;52.70;;;37.33;25.49;100250.53;5017673;28;21084;-69
2023/05/15 09:00:58;;;;;;;6.00;5.40;;;37.70;52.30;;;37.54;25.25;100253.81;5019203;28;20632;-70
2023/05/15 09:03:25;;;;;;;7.27;6.00;;;37.80;51.90;;;37.03;25.53;100247.47;5021182;28;20719;-70
2023/05/15 09:05:54;;;;;;;5.70;5.10;;;37.40;51.10;;;37.63;25.09;100243.03;5030249;28;20643;-70
2023/05/15 09:08:22;;;;;;;6.80;6.10;;;37.70;51.20;;;37.85;24.67;100246.75;5029682;28;20652;-70
2023/05/15 09:10:52;;;;;;;6.93;6.23;;;38.10;50.50;;;37.87;24.81;100244.53;5018500;28;20720;-71
2023/05/15 09:13:19;;;;;;;7.13;6.43;;;38.20;50.00;;;38.10;24.24;100240.03;5016976;28;20649;-71
2023/05/15 09:15:47;;;;;;;8.00;6.77;;;38.50;49.70;;;38.18;24.38;100238.53;5023462;28;20647;-72
2023/05/15 09:18:15;;;;;;;6.20;5.63;;;38.60;49.80;;;38.83;24.00;100236.41;5035987;28;20652;-67
2023/05/15 09:20:42;;;;;;;8.83;7.90;;;39.00;49.70;;;39.13;23.70;100249.41;5030222;28;20659;-68
2023/05/15 09:23:26;;;;;;;8.97;8.07;;;39.30;49.20;;;38.25;24.40;100242.50;5020607;28;20620;-68
2023/05/15 09:25:55;;;;;;;9.83;8.20;;;38.80;49.00;;;37.23;25.76;100242.53;5016782;28;20624;-67
2023/05/15 09:28:31;;;;;;;7.33;5.90;;;38.00;49.50;;;37.48;25.07;100235.94;5015478;28;20655;-70
2023/05/15 09:31:03;;;;;;;5.43;4.77;;;37.80;49.60;;;38.19;24.22;100230.06;5017469;28;20639;-69
2023/05/15 09:33:38;;;;;;;8.37;7.33;;;38.20;49.10;;;38.47;23.87;100230.88;5023887;28;21261;-71
2023/05/15 09:36:07;;;;;;;9.70;7.70;;;38.80;48.10;;;38.61;23.56;100231.72;5027873;28;20584;-71
2023/05/15 09:38:41;;;;;;;11.07;8.73;;;38.90;48.10;;;38.17;24.38;100226.00;5021378;28;20656;-70
2023/05/15 09:41:09;;;;;;;11.90;8.50;;;38.70;48.40;;;38.25;23.70;100222.63;5012682;28;20625;-71
2023/05/15 09:43:38;;;;;;;8.80;7.87;;;38.80;48.00;;;38.03;25.03;100215.94;5019188;28;21026;-71
2023/05/15 09:46:07;;;;;;;8.83;7.87;;;38.50;48.50;;;38.59;24.25;100220.31;5027444;28;20690;-71
2023/05/15 09:48:34;;;;;;;6.67;5.97;;;38.90;48.20;;;38.90;23.10;100221.28;5022606;28;20660;-71
2023/05/15 09:51:01;;;;;;;7.57;6.87;;;39.20;47.60;;;38.70;22.46;100216.25;5018731;28;20729;-72
2023/05/15 09:53:29;;;;;;;6.07;5.57;;;39.10;46.40;;;38.90;22.77;100215.81;5025116;28;20665;-72
2023/05/15 09:55:59;;;;;;;10.77;9.67;;;39.20;46.20;;;38.35;23.57;100212.34;5012128;28;20628;-72
2023/05/15 09:58:25;;;;;;;8.47;7.40;;;39.00;46.60;;;38.08;24.08;100208.78;5026135;28;20652;-71
2023/05/15 10:00:52;;;;;;;8.80;7.90;;;38.40;47.30;;;38.03;23.87;100202.31;5031848;28;20624;-71
2023/05/15 10:03:22;;;;;;;7.23;5.73;;;38.00;47.80;;;37.69;24.42;100203.72;5028792;28;20719;-71
2023/05/15 10:05:49;;;;;;;11.27;7.77;;;37.60;48.00;;;37.03;25.06;100202.06;5026495;28;20625;-71
2023/05/15 10:08:27;;;;;;;11.30;7.80;;;36.90;48.70;;;35.44;26.45;100196.16;5011230;28;20653;-70
2023/05/15 10:10:58;;;;;;;14.10;10.97;;;35.60;49.50;;;34.06;28.83;100190.09;5011545;28;20672;-70
2023/05/15 10:13:26;;;;;;;12.50;8.70;;;34.10;51.30;;;33.36;29.74;100189.03;5012573;28;20657;-70
2023/05/15 10:15:55;;;;;;;9.70;7.17;;;33.20;52.30;;;32.04;30.61;100189.66;5010260;28;20621;-72
2023/05/15 10:18:25;;;;;;;6.60;5.20;;;32.00;52.40;;;30.65;31.48;100186.16;5030121;28;20701;-72
2023/05/15 10:20:52;;;;;;;6.40;5.30;;;30.70;53.40;;;29.39;33.56;100178.13;5030686;28;20609;-71